createdAt,value
2018-07-10T00:00:28.015Z,0.00
2018-07-10T00:01:28.785Z,0.00
2018-07-10T00:02:29.569Z,0.00
2018-07-10T00:03:30.337Z,0.00
2018-07-10T00:04:31.514Z,0.00
2018-07-10T00:05:31.712Z,0.00
2018-07-10T00:06:31.394Z,0.00
2018-07-10T00:19:02.360Z,0.00
2018-07-10T00:20:03.125Z,0.00
2018-07-10T00:21:03.907Z,0.00
2018-07-10T00:22:04.689Z,0.00
2018-07-10T00:23:05.464Z,0.00
2018-07-10T00:24:06.234Z,0.00
2018-07-10T00:25:07.005Z,0.00
2018-07-10T00:26:07.779Z,0.00
2018-07-10T00:27:08.580Z,0.00
2018-07-10T00:28:09.343Z,0.00
2018-07-10T00:29:10.119Z,0.00
2018-07-10T00:30:10.886Z,0.00
2018-07-10T00:31:11.657Z,0.00
2018-07-10T00:32:12.451Z,0.00
2018-07-10T00:33:13.233Z,0.00
2018-07-10T00:34:13.997Z,0.00
2018-07-10T00:35:14.768Z,0.00
2018-07-10T00:36:15.538Z,0.00
2018-07-10T00:37:16.334Z,0.00
2018-07-10T00:38:17.103Z,0.00
2018-07-10T00:39:17.879Z,0.00
2018-07-10T00:40:18.647Z,0.00
2018-07-10T00:41:19.433Z,0.00
2018-07-10T00:42:20.215Z,0.00
2018-07-10T00:43:20.985Z,0.00
2018-07-10T00:44:21.762Z,0.00
2018-07-10T00:45:22.535Z,0.00
2018-07-10T00:46:23.320Z,0.00
2018-07-10T00:47:24.118Z,0.00
2018-07-10T00:48:24.890Z,0.00
2018-07-10T00:49:25.662Z,0.00
2018-07-10T00:50:26.434Z,0.00
2018-07-10T00:51:27.216Z,0.00
2018-07-10T00:52:28.008Z,0.00
2018-07-10T00:53:28.774Z,0.00
2018-07-10T00:54:29.561Z,0.00
2018-07-10T00:55:33.113Z,0.00
2018-07-10T00:56:30.884Z,0.00
2018-07-10T00:57:31.692Z,0.00
2018-07-10T00:58:32.464Z,0.00
2018-07-10T00:59:33.232Z,0.00
2018-07-10T01:00:34.007Z,0.00
2018-07-10T01:01:34.785Z,0.00
2018-07-10T01:02:35.582Z,0.00
2018-07-10T01:03:36.357Z,0.00
2018-07-10T01:04:37.124Z,0.00
2018-07-10T01:05:37.902Z,0.00
2018-07-10T01:06:38.673Z,0.00
2018-07-10T01:07:39.477Z,0.00
2018-07-10T01:08:40.247Z,0.00
2018-07-10T01:09:41.016Z,0.00
2018-07-10T01:10:41.786Z,0.00
2018-07-10T01:11:42.565Z,0.00
2018-07-10T01:12:43.360Z,0.00
2018-07-10T01:13:44.135Z,0.00
2018-07-10T01:14:44.914Z,0.00
2018-07-10T01:15:45.689Z,0.00
2018-07-10T01:16:46.457Z,0.00
2018-07-10T01:17:47.263Z,0.00
2018-07-10T01:18:48.079Z,0.00
2018-07-10T01:19:47.798Z,0.00
2018-07-10T01:20:49.577Z,0.00
2018-07-10T01:21:50.345Z,0.00
2018-07-10T01:22:51.142Z,0.00
2018-07-10T01:23:51.919Z,0.00
2018-07-10T01:24:52.689Z,0.00
2018-07-10T01:25:53.461Z,0.00
2018-07-10T01:26:54.231Z,0.00
2018-07-10T01:27:55.036Z,0.00
2018-07-10T01:28:55.809Z,0.00
2018-07-10T01:29:56.584Z,0.00
2018-07-10T01:30:57.356Z,0.00
2018-07-10T01:31:58.137Z,0.00
2018-07-10T01:32:58.934Z,0.00
2018-07-10T01:33:59.704Z,0.00
2018-07-10T01:35:00.479Z,0.00
2018-07-10T01:36:01.256Z,0.00
2018-07-10T01:37:02.025Z,0.00
2018-07-10T01:38:02.828Z,0.00
2018-07-10T01:39:03.595Z,0.00
2018-07-10T01:40:04.384Z,0.00
2018-07-10T01:41:05.139Z,0.00
2018-07-10T01:42:05.913Z,0.00
2018-07-10T01:43:06.708Z,0.00
2018-07-10T01:44:07.485Z,0.00
2018-07-10T01:45:08.261Z,0.00
2018-07-10T01:46:09.035Z,0.00
2018-07-10T01:47:09.813Z,0.00
2018-07-10T01:48:10.606Z,0.00
2018-07-10T01:49:11.384Z,0.00
2018-07-10T01:50:12.155Z,0.00
2018-07-10T01:51:12.927Z,0.00
2018-07-10T01:52:13.698Z,0.00
2018-07-10T01:53:14.505Z,0.00
2018-07-10T01:54:15.266Z,0.00
2018-07-10T01:55:16.041Z,0.00
2018-07-10T01:56:16.816Z,0.00
2018-07-10T01:57:17.584Z,0.00
2018-07-10T01:58:18.387Z,0.00
2018-07-10T01:59:19.158Z,0.00
2018-07-10T02:00:19.936Z,0.00
2018-07-10T02:01:20.711Z,0.00
2018-07-10T02:02:21.487Z,0.00
2018-07-10T02:03:22.287Z,0.00
2018-07-10T02:04:23.056Z,0.00
2018-07-10T02:05:23.829Z,0.00
2018-07-10T02:06:25.001Z,0.00
2018-07-10T02:07:25.206Z,0.00
2018-07-10T02:22:48.910Z,0.00
2018-07-10T02:23:49.679Z,0.00
2018-07-10T02:24:50.473Z,0.00
2018-07-10T02:25:51.247Z,0.00
2018-07-10T02:26:52.016Z,0.00
2018-07-10T02:27:52.829Z,0.00
2018-07-10T02:28:53.593Z,0.00
2018-07-10T02:29:54.387Z,0.00
2018-07-10T02:30:55.171Z,0.00
2018-07-10T02:31:55.940Z,0.00
2018-07-10T02:32:56.718Z,0.00
2018-07-10T02:33:57.495Z,0.00
2018-07-10T02:34:58.291Z,0.00
2018-07-10T02:35:59.063Z,0.05
2018-07-10T02:36:59.833Z,0.05
2018-07-10T02:38:00.606Z,0.05
2018-07-10T02:39:01.385Z,0.05
2018-07-10T02:40:02.176Z,0.05
2018-07-10T02:41:02.944Z,0.05
2018-07-10T02:42:03.719Z,0.05
2018-07-10T02:43:04.488Z,0.05
2018-07-10T02:44:05.261Z,0.05
2018-07-10T02:45:06.062Z,0.05
2018-07-10T02:46:06.863Z,0.09
2018-07-10T02:47:07.619Z,0.09
2018-07-10T02:48:08.396Z,0.09
2018-07-10T02:49:09.163Z,0.09
2018-07-10T02:50:09.966Z,0.09
2018-07-10T02:51:10.735Z,0.14
2018-07-10T02:52:11.508Z,0.14
2018-07-10T02:53:12.280Z,0.14
2018-07-10T02:54:13.061Z,0.14
2018-07-10T02:55:13.847Z,0.14
2018-07-10T02:56:14.620Z,0.14
2018-07-10T02:57:15.390Z,0.18
2018-07-10T02:58:16.165Z,0.27
2018-07-10T02:59:16.935Z,0.27
2018-07-10T03:00:16.731Z,0.31
2018-07-10T03:01:18.504Z,0.45
2018-07-10T03:02:19.281Z,0.58
2018-07-10T03:03:20.050Z,0.68
2018-07-10T03:04:20.832Z,0.72
2018-07-10T03:05:21.619Z,0.72
2018-07-10T03:06:22.389Z,0.81
2018-07-10T03:07:23.163Z,0.99
2018-07-10T03:08:23.936Z,1.17
2018-07-10T03:09:24.722Z,1.35
2018-07-10T03:10:25.518Z,1.58
2018-07-10T03:11:26.289Z,1.80
2018-07-10T03:12:27.060Z,2.07
2018-07-10T03:13:27.834Z,2.52
2018-07-10T03:14:28.610Z,2.84
2018-07-10T03:15:29.407Z,3.51
2018-07-10T03:16:30.176Z,3.91
2018-07-10T03:17:30.956Z,3.87
2018-07-10T03:18:31.721Z,4.05
2018-07-10T03:19:32.493Z,4.77
2018-07-10T03:20:33.289Z,5.89
2018-07-10T03:21:34.065Z,7.16
2018-07-10T03:22:34.841Z,8.28
2018-07-10T03:23:35.617Z,13.68
2018-07-10T03:24:36.391Z,18.18
2018-07-10T03:25:37.186Z,22.68
2018-07-10T03:26:37.962Z,30.24
2018-07-10T03:27:38.731Z,34.38
2018-07-10T03:28:39.509Z,30.60
2018-07-10T03:29:40.277Z,25.38
2018-07-10T03:30:41.071Z,21.87
2018-07-10T03:31:41.843Z,21.42
2018-07-10T03:32:42.614Z,21.33
2018-07-10T03:33:43.395Z,24.48
2018-07-10T03:34:44.169Z,31.68
2018-07-10T03:35:44.964Z,40.86
2018-07-10T03:36:45.739Z,49.32
2018-07-10T03:37:46.514Z,54.00
2018-07-10T03:38:47.291Z,54.72
2018-07-10T03:39:48.070Z,46.08
2018-07-10T03:40:48.867Z,48.24
2018-07-10T03:41:49.637Z,45.18
2018-07-10T03:42:50.409Z,41.58
2018-07-10T03:43:51.184Z,43.56
2018-07-10T03:44:51.960Z,55.44
2018-07-10T03:45:52.757Z,57.24
2018-07-10T03:46:53.525Z,63.00
2018-07-10T03:47:54.296Z,69.84
2018-07-10T03:48:55.069Z,66.24
2018-07-10T03:49:55.842Z,61.20
2018-07-10T03:50:56.645Z,55.80
2018-07-10T03:51:57.425Z,55.80
2018-07-10T03:52:58.195Z,58.68
2018-07-10T03:53:58.968Z,63.00
2018-07-10T03:54:59.741Z,61.20
2018-07-10T03:56:00.538Z,65.16
2018-07-10T03:57:01.309Z,61.56
2018-07-10T03:58:02.082Z,59.04
2018-07-10T03:59:02.860Z,59.76
2018-07-10T04:00:03.627Z,70.56
2018-07-10T04:01:04.433Z,70.56
2018-07-10T04:02:05.202Z,66.24
2018-07-10T04:03:05.970Z,60.48
2018-07-10T04:04:06.742Z,61.56
2018-07-10T04:05:07.513Z,64.44
2018-07-10T04:06:08.323Z,75.24
2018-07-10T04:07:09.091Z,88.92
2018-07-10T04:08:09.865Z,100.08
2018-07-10T04:09:10.695Z,115.20
2018-07-10T04:10:10.411Z,146.16
2018-07-10T04:11:12.597Z,174.24
2018-07-10T04:12:12.801Z,192.96
2018-07-10T04:13:12.015Z,192.96
2018-07-10T04:14:12.271Z,197.28
2018-07-10T04:14:21.054Z,201.60
2018-07-10T04:15:21.815Z,239.04
2018-07-10T04:16:22.611Z,220.32
2018-07-10T04:17:23.383Z,201.60
2018-07-10T04:18:24.158Z,213.12
2018-07-10T04:19:24.930Z,259.20
2018-07-10T04:20:25.699Z,275.04
2018-07-10T04:21:26.497Z,224.64
2018-07-10T04:22:27.273Z,173.52
2018-07-10T04:23:28.040Z,164.88
2018-07-10T04:24:28.819Z,148.32
2018-07-10T04:25:29.593Z,144.00
2018-07-10T04:26:30.388Z,142.56
2018-07-10T04:27:31.164Z,143.28
2018-07-10T04:28:31.935Z,133.92
2018-07-10T04:29:32.708Z,126.00
2018-07-10T04:30:33.479Z,114.48
2018-07-10T04:31:34.274Z,108.72
2018-07-10T04:32:35.052Z,104.40
2018-07-10T04:33:35.822Z,98.64
2018-07-10T04:34:36.597Z,98.64
2018-07-10T04:35:37.368Z,105.84
2018-07-10T04:36:38.164Z,105.84
2018-07-10T04:37:38.941Z,108.72
2018-07-10T04:38:39.710Z,105.84
2018-07-10T04:39:40.481Z,103.68
2018-07-10T04:40:41.257Z,105.12
2018-07-10T04:41:42.051Z,105.84
2018-07-10T04:42:42.824Z,115.20
2018-07-10T04:43:43.595Z,120.96
2018-07-10T04:44:44.368Z,115.20
2018-07-10T04:45:45.154Z,105.84
2018-07-10T04:46:45.953Z,97.20
2018-07-10T04:47:46.721Z,93.60
2018-07-10T04:48:47.493Z,97.20
2018-07-10T04:49:48.268Z,100.80
2018-07-10T04:50:49.040Z,105.12
2018-07-10T04:51:49.839Z,112.32
2018-07-10T04:52:50.611Z,118.08
2018-07-10T04:53:51.386Z,119.52
2018-07-10T04:54:52.157Z,123.84
2018-07-10T04:55:52.931Z,146.16
2018-07-10T04:56:53.728Z,145.44
2018-07-10T04:57:54.504Z,131.76
2018-07-10T04:58:55.275Z,125.28
2018-07-10T04:59:56.048Z,134.64
2018-07-10T05:00:56.823Z,156.96
2018-07-10T05:01:57.619Z,169.92
2018-07-10T05:02:58.394Z,201.60
2018-07-10T05:03:59.161Z,243.36
2018-07-10T05:04:59.940Z,243.36
2018-07-10T05:06:00.705Z,254.88
2018-07-10T05:07:01.509Z,231.84
2018-07-10T05:08:02.276Z,234.72
2018-07-10T05:09:03.048Z,249.12
2018-07-10T05:10:03.819Z,266.40
2018-07-10T05:11:04.593Z,315.36
2018-07-10T05:12:05.488Z,349.92
2018-07-10T05:13:05.178Z,394.56
2018-07-10T05:14:06.953Z,506.88
2018-07-10T05:15:07.724Z,662.40
2018-07-10T05:16:08.506Z,858.24
2018-07-10T05:17:09.296Z,990.72
2018-07-10T05:18:10.070Z,1071.36
2018-07-10T05:19:10.843Z,1019.52
2018-07-10T05:20:11.617Z,927.36
2018-07-10T05:21:12.402Z,875.52
2018-07-10T05:22:13.189Z,777.60
2018-07-10T05:23:13.964Z,748.80
2018-07-10T05:24:14.738Z,852.48
2018-07-10T05:25:15.505Z,915.84
2018-07-10T05:26:16.281Z,800.64
2018-07-10T05:27:17.070Z,737.28
2018-07-10T05:28:17.844Z,728.64
2018-07-10T05:29:18.617Z,737.28
2018-07-10T05:30:19.392Z,766.08
2018-07-10T05:31:20.176Z,766.08
2018-07-10T05:32:20.970Z,760.32
2018-07-10T05:33:21.744Z,766.08
2018-07-10T05:34:22.517Z,812.16
2018-07-10T05:35:23.292Z,864.00
2018-07-10T05:36:24.062Z,904.32
2018-07-10T05:37:24.867Z,961.92
2018-07-10T05:38:25.634Z,1082.88
2018-07-10T05:39:26.408Z,1134.72
2018-07-10T05:40:27.179Z,1278.72
2018-07-10T05:41:27.949Z,1422.72
2018-07-10T05:42:28.746Z,1370.88
2018-07-10T05:43:29.520Z,1267.20
2018-07-10T05:44:30.296Z,1232.64
2018-07-10T05:45:31.067Z,1278.72
2018-07-10T05:46:31.924Z,1416.96
2018-07-10T05:47:31.637Z,1416.96
2018-07-10T05:48:33.413Z,1468.80
2018-07-10T05:49:34.183Z,1635.84
2018-07-10T05:50:34.954Z,1739.52
2018-07-10T05:51:35.725Z,1785.60
2018-07-10T05:52:36.533Z,1831.68
2018-07-10T05:53:37.297Z,1923.84
2018-07-10T05:54:38.078Z,1958.40
2018-07-10T05:55:38.843Z,1981.44
2018-07-10T05:56:39.615Z,2096.64
2018-07-10T05:57:40.411Z,2200.32
2018-07-10T05:58:41.206Z,2315.52
2018-07-10T05:59:41.956Z,2465.28
2018-07-10T06:00:42.728Z,2522.88
2018-07-10T06:01:43.500Z,2430.72
2018-07-10T06:02:44.663Z,2223.36
2018-07-10T06:03:44.858Z,2096.64
2018-07-10T06:04:44.055Z,2004.48
2018-07-10T06:05:44.264Z,2004.48
2018-07-10T06:08:57.738Z,2499.84
2018-07-10T06:09:58.484Z,2649.60
2018-07-10T06:10:59.289Z,2868.48
2018-07-10T06:12:00.033Z,3202.56
2018-07-10T06:13:00.828Z,3663.36
2018-07-10T06:14:01.615Z,4008.96
2018-07-10T06:15:01.369Z,3985.92
2018-07-10T06:16:03.139Z,3755.52
2018-07-10T06:17:03.917Z,3456.00
2018-07-10T06:18:04.712Z,3133.44
2018-07-10T06:19:05.484Z,2949.12
2018-07-10T06:20:06.255Z,2891.52
2018-07-10T06:21:07.029Z,2903.04
2018-07-10T06:22:07.797Z,2914.56
2018-07-10T06:23:08.618Z,2880.00
2018-07-10T06:24:09.369Z,2822.40
2018-07-10T06:25:10.138Z,2764.80
2018-07-10T06:26:10.911Z,2810.88
2018-07-10T06:27:11.683Z,2787.84
2018-07-10T06:28:12.539Z,2753.28
2018-07-10T06:29:12.248Z,2741.76
2018-07-10T06:30:14.060Z,2753.28
2018-07-10T06:31:13.790Z,2741.76
2018-07-10T06:32:15.566Z,2776.32
2018-07-10T06:33:16.359Z,2937.60
2018-07-10T06:34:17.135Z,3133.44
2018-07-10T06:35:17.907Z,3271.68
2018-07-10T06:36:18.683Z,3317.76
2018-07-10T06:37:19.457Z,3133.44
2018-07-10T06:38:20.255Z,2926.08
2018-07-10T06:39:21.029Z,2661.12
2018-07-10T06:40:21.806Z,2430.72
2018-07-10T06:41:22.574Z,2338.56
2018-07-10T06:42:23.347Z,2246.40
2018-07-10T06:43:24.149Z,2234.88
2018-07-10T06:44:24.924Z,2246.40
2018-07-10T06:45:25.692Z,2280.96
2018-07-10T06:46:26.469Z,2269.44
2018-07-10T06:47:27.241Z,2257.92
2018-07-10T06:48:28.039Z,2338.56
2018-07-10T06:49:28.812Z,2442.24
2018-07-10T06:50:29.605Z,2603.52
2018-07-10T06:51:30.359Z,2787.84
2018-07-10T06:52:31.267Z,3041.28
2018-07-10T06:53:31.002Z,3225.60
2018-07-10T06:54:31.699Z,3340.80
2018-07-10T06:55:33.472Z,3502.08
2018-07-10T06:56:34.249Z,3709.44
2018-07-10T06:57:35.023Z,3962.88
2018-07-10T06:58:35.816Z,4193.28
2018-07-10T06:59:36.591Z,4400.64
2018-07-10T07:00:37.413Z,4700.16
2018-07-10T07:01:37.138Z,5022.72
2018-07-10T07:02:38.910Z,5322.24
2018-07-10T07:03:39.704Z,5621.76
2018-07-10T07:04:40.479Z,5852.16
2018-07-10T07:05:41.250Z,6036.48
2018-07-10T07:06:42.027Z,5898.24
2018-07-10T07:07:42.832Z,5529.60
2018-07-10T07:08:42.596Z,5299.20
2018-07-10T07:09:44.367Z,5391.36
2018-07-10T07:10:45.140Z,5667.84
2018-07-10T07:11:45.914Z,5806.08
2018-07-10T07:12:46.685Z,5898.24
2018-07-10T07:13:47.483Z,5944.32
2018-07-10T07:14:48.254Z,6128.64
2018-07-10T07:15:49.063Z,6405.12
2018-07-10T07:16:48.835Z,6635.52
2018-07-10T08:31:23.488Z,217.44
2018-07-10T08:32:23.222Z,266.40
2018-07-10T08:33:24.016Z,349.92
2018-07-10T08:34:24.718Z,434.88
2018-07-10T08:35:26.495Z,489.60
2018-07-10T08:36:27.381Z,518.40
2018-07-10T08:37:28.143Z,509.76
2018-07-10T08:38:28.915Z,506.88
2018-07-10T08:39:29.704Z,501.12
2018-07-10T08:40:30.474Z,518.40
2018-07-10T08:41:31.276Z,506.88
2018-07-10T08:42:32.046Z,475.20
2018-07-10T08:43:32.828Z,466.56
2018-07-10T08:44:33.604Z,469.44
2018-07-10T08:45:34.373Z,440.64
2018-07-10T08:46:35.166Z,400.32
2018-07-10T08:47:36.111Z,360.00
2018-07-10T08:48:35.804Z,344.16
2018-07-10T08:49:37.666Z,289.44
2018-07-10T08:50:38.451Z,2926.08
2018-07-10T08:51:38.239Z,3041.28
2018-07-10T08:52:40.018Z,3317.76
2018-07-10T08:53:40.781Z,3732.48
2018-07-10T08:54:41.557Z,4331.52
2018-07-10T08:55:42.329Z,5621.76
2018-07-10T08:56:43.153Z,7603.20
2018-07-10T08:57:43.924Z,11566.08
2018-07-10T08:58:44.695Z,39813.12
2018-07-10T08:59:45.526Z,29675.52
2018-07-10T09:00:45.244Z,17602.56
2018-07-10T09:01:47.038Z,13824.00
2018-07-10T09:02:47.808Z,13824.00
2018-07-10T09:03:48.583Z,14837.76
2018-07-10T09:04:49.354Z,17233.92
2018-07-10T09:05:50.129Z,13271.04
2018-07-10T09:06:50.936Z,11197.44
2018-07-10T09:07:51.746Z,9815.04
2018-07-10T09:08:51.478Z,8847.36
2018-07-10T09:09:53.249Z,8202.24
2018-07-10T09:10:54.024Z,7833.60
2018-07-10T09:11:54.815Z,7741.44
2018-07-10T09:12:55.589Z,7557.12
2018-07-10T09:13:56.390Z,7326.72
2018-07-10T09:14:57.133Z,7096.32
2018-07-10T09:15:57.905Z,6589.44
2018-07-10T09:16:58.709Z,5990.40
2018-07-10T09:17:59.476Z,5529.60
2018-07-10T09:19:00.258Z,5299.20
2018-07-10T09:20:01.027Z,4907.52
2018-07-10T09:21:01.812Z,4654.08
2018-07-10T09:22:02.602Z,4538.88
2018-07-10T09:23:03.379Z,4515.84
2018-07-10T09:24:04.148Z,4193.28
2018-07-10T09:25:04.925Z,4147.20
2018-07-10T09:26:05.691Z,4262.40
2018-07-10T09:27:06.490Z,4723.20
2018-07-10T09:28:07.264Z,5299.20
2018-07-10T09:29:08.033Z,6036.48
2018-07-10T09:30:08.805Z,7234.56
2018-07-10T09:31:09.580Z,8801.28
2018-07-10T09:32:10.373Z,10460.16
2018-07-10T09:33:11.148Z,11796.48
2018-07-10T09:34:11.922Z,11888.64
2018-07-10T09:35:12.696Z,12257.28
2018-07-10T09:36:13.476Z,12718.08
2018-07-10T09:37:14.274Z,12072.96
2018-07-10T09:38:15.131Z,11335.68
2018-07-10T09:39:14.817Z,10183.68
2018-07-10T09:40:16.589Z,8847.36
2018-07-10T09:41:17.360Z,7833.60
2018-07-10T09:42:18.164Z,7096.32
2018-07-10T09:43:18.935Z,6589.44
2018-07-10T09:44:19.761Z,6405.12
2018-07-10T09:45:19.479Z,6220.80
2018-07-10T09:46:21.253Z,5760.00
2018-07-10T09:47:22.059Z,5068.80
2018-07-10T09:48:22.825Z,4838.40
2018-07-10T09:49:23.602Z,5437.44
2018-07-10T09:50:24.383Z,5575.68
2018-07-10T09:51:25.148Z,5160.96
2018-07-10T09:52:25.946Z,4884.48
2018-07-10T09:53:26.718Z,4999.68
2018-07-10T09:54:27.491Z,5806.08
2018-07-10T09:55:28.271Z,7280.64
2018-07-10T09:56:29.039Z,9354.24
2018-07-10T09:57:29.836Z,10506.24
2018-07-10T09:58:30.612Z,10091.52
2018-07-10T09:59:31.388Z,9262.08
2018-07-10T10:00:32.159Z,8294.40
2018-07-10T10:01:32.931Z,7879.68
2018-07-10T10:02:33.733Z,7833.60
2018-07-10T10:03:34.503Z,7511.04
2018-07-10T10:04:35.276Z,6589.44
2018-07-10T10:05:36.055Z,5644.80
2018-07-10T10:06:36.825Z,4769.28
2018-07-10T10:07:37.627Z,4008.96
2018-07-10T10:08:38.401Z,3663.36
2018-07-10T10:09:39.167Z,3502.08
2018-07-10T10:10:39.943Z,3479.04
2018-07-10T10:11:40.715Z,3594.24
2018-07-10T10:12:41.510Z,3824.64
2018-07-10T10:13:42.282Z,3870.72
2018-07-10T10:14:43.060Z,3824.64
2018-07-10T10:15:43.835Z,3824.64
2018-07-10T10:16:44.606Z,3801.60
2018-07-10T10:17:45.399Z,3847.68
2018-07-10T10:18:46.177Z,4032.00
2018-07-10T10:19:46.949Z,4101.12
2018-07-10T10:20:47.721Z,4492.80
2018-07-10T10:21:48.500Z,4930.56
2018-07-10T10:22:49.296Z,5184.00
2018-07-10T10:23:50.067Z,5713.92
2018-07-10T10:24:50.852Z,6036.48
2018-07-10T10:25:52.004Z,6312.96
2018-07-10T10:26:52.187Z,6266.88
2018-07-10T10:27:51.414Z,6036.48
2018-07-10T10:28:54.963Z,5944.32
2018-07-10T10:37:37.142Z,5322.24
2018-07-10T10:38:37.938Z,5483.52
2018-07-10T10:39:38.709Z,5944.32
2018-07-10T10:40:39.480Z,6543.36
2018-07-10T10:41:40.255Z,6727.68
2018-07-10T10:42:41.023Z,7188.48
2018-07-10T10:43:41.818Z,8478.72
2018-07-10T10:44:42.590Z,11059.20
2018-07-10T10:45:43.365Z,13547.52
2018-07-10T10:46:44.137Z,15390.72
2018-07-10T10:47:44.910Z,16773.12
2018-07-10T10:48:45.704Z,17233.92
2018-07-10T10:49:46.479Z,21657.60
2018-07-10T10:50:47.250Z,29306.88
2018-07-10T10:51:48.019Z,31518.72
2018-07-10T10:52:48.797Z,35758.08
2018-07-10T10:53:49.590Z,50872.32
2018-07-10T10:54:50.373Z,39075.84
2018-07-10T10:55:51.136Z,13178.88
2018-07-10T10:56:51.915Z,13455.36
2018-07-10T10:57:52.682Z,13271.04
2018-07-10T10:58:53.477Z,12625.92
2018-07-10T10:59:54.248Z,12165.12
2018-07-10T11:00:55.026Z,11980.80
2018-07-10T11:01:55.795Z,11888.64
2018-07-10T11:02:56.570Z,12257.28
2018-07-10T11:03:57.368Z,12718.08
2018-07-10T11:04:57.141Z,12994.56
2018-07-10T11:05:58.927Z,12994.56
2018-07-10T11:06:59.696Z,12994.56
2018-07-10T11:08:00.460Z,11520.00
2018-07-10T11:09:01.254Z,10091.52
2018-07-10T11:10:02.024Z,9354.24
2018-07-10T11:11:02.801Z,8893.44
2018-07-10T11:12:02.571Z,8616.96
2018-07-10T11:13:04.418Z,9216.00
2018-07-10T11:14:04.142Z,9446.40
2018-07-10T11:15:05.915Z,9999.36
2018-07-10T11:16:06.693Z,11888.64
2018-07-10T11:17:07.461Z,41840.64
2018-07-10T11:18:08.233Z,17786.88
2018-07-10T11:19:09.031Z,15114.24
2018-07-10T11:20:09.803Z,13824.00
2018-07-10T11:21:10.582Z,12441.60
2018-07-10T11:22:11.346Z,11013.12
2018-07-10T11:23:12.122Z,9768.96
2018-07-10T11:24:12.920Z,9216.00
2018-07-10T11:25:13.690Z,8386.56
2018-07-10T11:26:14.470Z,9354.24
2018-07-10T11:27:15.235Z,10782.72
2018-07-10T11:28:16.009Z,12533.76
2018-07-10T11:29:16.802Z,14653.44
2018-07-10T11:30:17.575Z,15298.56
2018-07-10T11:31:18.540Z,15482.88
2018-07-10T11:32:18.236Z,16404.48
2018-07-10T11:33:20.245Z,22118.40
2018-07-10T11:34:19.960Z,22671.36
2018-07-10T11:35:21.733Z,23961.60
2018-07-10T11:36:22.515Z,41103.36
2018-07-10T11:37:23.284Z,17971.20
2018-07-10T11:38:24.061Z,15482.88
2018-07-10T11:39:24.995Z,12994.56
2018-07-10T11:40:24.633Z,10967.04
2018-07-10T11:41:26.405Z,8847.36
2018-07-10T11:42:27.179Z,7050.24
2018-07-10T11:43:27.954Z,5713.92
2018-07-10T11:44:28.747Z,4677.12
2018-07-10T11:45:29.525Z,3985.92
2018-07-10T11:46:30.297Z,3709.44
2018-07-10T11:47:31.076Z,3617.28
2018-07-10T11:48:31.845Z,3594.24
2018-07-10T11:49:32.653Z,3594.24
2018-07-10T11:50:33.420Z,3709.44
2018-07-10T11:51:34.206Z,3755.52
2018-07-10T11:52:35.044Z,3755.52
2018-07-10T11:53:34.737Z,3732.48
2018-07-10T11:54:36.537Z,3962.88
2018-07-10T11:55:37.311Z,4631.04
2018-07-10T11:56:38.079Z,5552.64
2018-07-10T11:57:38.853Z,6312.96
2018-07-10T11:58:39.628Z,7787.52
2018-07-10T11:59:40.424Z,8478.72
2018-07-10T12:00:41.198Z,8340.48
2018-07-10T12:01:41.972Z,7234.56
2018-07-10T12:02:42.744Z,5667.84
2018-07-10T12:03:43.527Z,4469.76
2018-07-10T12:04:44.319Z,3847.68
2018-07-10T12:05:45.098Z,3893.76
2018-07-10T12:06:45.868Z,4216.32
2018-07-10T12:07:46.640Z,4769.28
2018-07-10T12:08:47.411Z,5391.36
2018-07-10T12:09:48.213Z,5713.92
2018-07-10T12:10:48.979Z,6082.56
2018-07-10T12:11:49.755Z,6589.44
2018-07-10T12:12:50.524Z,7418.88
2018-07-10T12:13:51.295Z,7879.68
2018-07-10T12:14:52.094Z,7695.36
2018-07-10T12:15:52.861Z,7188.48
2018-07-10T12:16:53.630Z,6174.72
2018-07-10T12:17:54.402Z,5529.60
2018-07-10T12:18:55.172Z,5299.20
2018-07-10T12:19:55.967Z,5091.84
2018-07-10T12:20:56.743Z,4723.20
2018-07-10T12:21:57.513Z,4584.96
2018-07-10T12:22:58.290Z,4677.12
2018-07-10T12:23:59.058Z,5137.92
2018-07-10T12:24:59.858Z,6359.04
2018-07-10T12:26:00.630Z,6727.68
2018-07-10T12:27:01.401Z,6266.88
2018-07-10T12:28:02.253Z,5621.76
2018-07-10T12:29:01.950Z,5045.76
2018-07-10T12:30:03.746Z,4700.16
2018-07-10T12:31:04.899Z,4538.88
2018-07-10T12:32:05.081Z,4492.80
2018-07-10T12:33:04.281Z,4354.56
2018-07-10T12:34:04.477Z,4354.56
2018-07-10T12:37:08.423Z,7234.56
2018-07-10T12:38:10.194Z,10414.08
2018-07-10T12:39:10.966Z,10644.48
2018-07-10T12:40:11.735Z,11520.00
2018-07-10T12:41:12.533Z,10920.96
2018-07-10T12:42:13.308Z,9169.92
2018-07-10T12:43:14.080Z,8248.32
2018-07-10T12:44:14.864Z,8064.00
2018-07-10T12:45:15.629Z,8709.12
2018-07-10T12:46:16.425Z,9123.84
2018-07-10T12:47:17.205Z,9169.92
2018-07-10T12:48:17.973Z,8939.52
2018-07-10T12:49:18.779Z,8202.24
2018-07-10T12:50:18.519Z,6681.60
2018-07-10T12:51:20.314Z,5598.72
2018-07-10T12:52:21.087Z,5045.76
2018-07-10T12:53:21.859Z,4769.28
2018-07-10T12:54:22.631Z,4792.32
2018-07-10T12:55:23.407Z,4930.56
2018-07-10T12:56:24.202Z,4907.52
2018-07-10T12:57:24.975Z,4631.04
2018-07-10T12:58:25.747Z,4193.28
2018-07-10T12:59:26.518Z,3847.68
2018-07-10T13:00:27.374Z,3709.44
2018-07-10T13:01:27.129Z,3755.52
2018-07-10T13:02:28.900Z,3962.88
2018-07-10T13:03:29.677Z,4193.28
2018-07-10T13:04:30.511Z,4423.68
2018-07-10T13:05:30.223Z,4469.76
2018-07-10T13:06:32.020Z,4331.52
2018-07-10T13:07:32.798Z,4078.08
2018-07-10T13:08:33.582Z,3824.64
2018-07-10T13:09:34.337Z,3709.44
2018-07-10T13:10:35.111Z,3617.28
2018-07-10T13:11:35.907Z,3594.24
2018-07-10T13:12:36.680Z,3663.36
2018-07-10T13:13:37.455Z,3548.16
2018-07-10T13:14:38.232Z,3156.48
2018-07-10T13:15:39.002Z,2845.44
2018-07-10T13:16:39.805Z,2661.12
2018-07-10T13:17:40.577Z,2488.32
2018-07-10T13:18:41.359Z,2269.44
2018-07-10T13:19:42.128Z,2142.72
2018-07-10T13:20:42.905Z,2154.24
2018-07-10T13:21:43.704Z,2280.96
2018-07-10T13:22:44.474Z,2476.80
2018-07-10T13:23:45.248Z,2522.88
2018-07-10T13:24:46.017Z,2557.44
2018-07-10T13:25:46.795Z,2511.36
2018-07-10T13:26:47.586Z,2649.60
2018-07-10T13:27:48.360Z,2833.92
2018-07-10T13:28:49.131Z,2868.48
2018-07-10T13:29:49.906Z,2995.20
2018-07-10T13:30:50.686Z,3271.68
2018-07-10T13:31:51.484Z,3456.00
2018-07-10T13:32:52.252Z,3456.00
2018-07-10T13:33:53.031Z,3409.92
2018-07-10T13:34:53.800Z,3225.60
2018-07-10T13:35:54.660Z,2995.20
2018-07-10T13:36:54.366Z,2891.52
2018-07-10T13:37:56.139Z,2845.44
2018-07-10T13:38:56.910Z,2845.44
2018-07-10T13:39:57.688Z,2995.20
2018-07-10T13:40:58.461Z,3225.60
2018-07-10T13:41:59.259Z,3432.96
2018-07-10T13:43:00.038Z,3479.04
2018-07-10T13:44:00.805Z,3363.84
2018-07-10T13:45:01.576Z,3087.36
2018-07-10T13:46:02.360Z,2949.12
2018-07-10T13:47:03.151Z,3133.44
2018-07-10T13:48:03.933Z,3386.88
2018-07-10T13:49:04.695Z,3502.08
2018-07-10T13:50:05.468Z,3640.32
2018-07-10T13:51:06.248Z,3525.12
2018-07-10T13:52:07.036Z,3525.12
2018-07-10T13:53:07.812Z,3432.96
2018-07-10T13:54:08.588Z,3409.92
2018-07-10T13:55:09.366Z,3847.68
2018-07-10T13:56:10.135Z,4170.24
2018-07-10T13:57:10.938Z,4055.04
2018-07-10T13:58:11.715Z,3663.36
2018-07-10T13:59:12.488Z,3594.24
2018-07-10T14:00:13.262Z,3571.20
2018-07-10T14:01:14.034Z,3317.76
2018-07-10T14:02:14.832Z,3156.48
2018-07-10T14:03:15.613Z,3110.40
2018-07-10T14:04:16.404Z,3064.32
2018-07-10T14:05:17.151Z,2937.60
2018-07-10T14:06:17.931Z,2753.28
2018-07-10T14:07:18.725Z,2741.76
2018-07-10T14:08:19.497Z,2787.84
2018-07-10T14:09:20.268Z,2926.08
2018-07-10T14:10:21.041Z,2949.12
2018-07-10T14:11:21.815Z,2822.40
2018-07-10T14:12:22.770Z,2557.44
2018-07-10T14:13:22.388Z,2292.48
2018-07-10T14:14:24.157Z,2073.60
2018-07-10T14:15:24.933Z,1969.92
2018-07-10T14:16:25.712Z,2039.04
2018-07-10T14:17:26.507Z,2131.20
2018-07-10T14:18:27.275Z,2200.32
2018-07-10T14:19:28.049Z,2269.44
2018-07-10T14:20:28.825Z,2257.92
2018-07-10T14:21:29.599Z,2108.16
2018-07-10T14:22:30.407Z,1969.92
2018-07-10T14:23:31.178Z,1843.20
2018-07-10T14:24:31.949Z,1693.44
2018-07-10T14:25:32.722Z,1578.24